createdAt,value
2023-02-17T00:02:16.959Z,69.36
2023-02-17T00:04:50.047Z,69.47
2023-02-17T00:07:22.623Z,69.16
2023-02-17T00:09:55.813Z,69.47
2023-02-17T00:12:29.447Z,69.49
2023-02-17T00:15:02.848Z,69.53
2023-02-17T00:17:35.241Z,69.87
2023-02-17T00:20:09.341Z,69.92
2023-02-17T00:22:41.770Z,69.76
2023-02-17T00:25:14.141Z,70.11
2023-02-17T00:27:47.846Z,69.90
2023-02-17T00:30:20.731Z,69.97
2023-02-17T00:32:53.192Z,69.82
2023-02-17T00:35:26.035Z,69.46
2023-02-17T00:37:58.503Z,69.63
2023-02-17T00:40:30.955Z,69.34
2023-02-17T00:43:03.814Z,69.65
2023-02-17T00:45:36.392Z,69.54
2023-02-17T00:48:09.123Z,69.54
2023-02-17T00:50:41.764Z,69.38
2023-02-17T00:53:14.547Z,70.06
2023-02-17T00:55:47.184Z,70.14
2023-02-17T00:58:19.642Z,70.24
2023-02-17T01:00:51.991Z,70.11
2023-02-17T01:03:25.128Z,70.13
2023-02-17T01:05:58.613Z,69.92
2023-02-17T01:08:31.276Z,70.29
2023-02-17T01:11:03.961Z,70.79
2023-02-17T01:13:38.472Z,70.44
2023-02-17T01:16:21.597Z,70.25
2023-02-17T01:18:54.258Z,70.29
2023-02-17T01:21:29.104Z,70.05
2023-02-17T01:24:01.181Z,70.13
2023-02-17T01:26:36.221Z,70.33
2023-02-17T01:29:10.089Z,70.25
2023-02-17T01:31:44.677Z,70.20
2023-02-17T01:34:17.449Z,70.11
2023-02-17T01:36:50.381Z,70.18
2023-02-17T01:39:23.057Z,70.03
2023-02-17T01:41:56.325Z,70.33
2023-02-17T01:44:33.696Z,70.34
2023-02-17T01:47:06.106Z,70.45
2023-02-17T01:49:42.506Z,70.95
2023-02-17T01:52:19.728Z,70.43
2023-02-17T01:54:56.648Z,70.07
2023-02-17T01:57:32.978Z,70.55
2023-02-17T02:00:05.935Z,70.13
2023-02-17T02:02:48.915Z,70.43
2023-02-17T02:05:25.158Z,70.58
2023-02-17T02:07:58.429Z,70.34
2023-02-17T02:10:30.892Z,70.05
2023-02-17T02:13:04.436Z,70.11
2023-02-17T02:15:49.063Z,70.63
2023-02-17T02:18:49.146Z,70.56
2023-02-17T02:21:55.360Z,70.42
2023-02-17T02:24:38.512Z,70.24
2023-02-17T02:27:43.572Z,70.26
2023-02-17T02:31:06.894Z,70.14
2023-02-17T02:33:46.155Z,69.96
2023-02-17T02:36:23.218Z,70.02
2023-02-17T02:38:59.753Z,70.42
2023-02-17T02:41:35.572Z,70.37
2023-02-17T02:44:10.926Z,69.97
2023-02-17T02:46:44.560Z,70.14
2023-02-17T02:49:17.004Z,69.95
2023-02-17T02:51:56.539Z,70.08
2023-02-17T02:54:41.788Z,69.94
2023-02-17T02:57:39.808Z,70.32
2023-02-17T03:00:21.877Z,70.67
2023-02-17T03:02:59.096Z,70.55
2023-02-17T03:05:39.568Z,70.76
2023-02-17T03:08:17.035Z,70.34
2023-02-17T03:10:52.618Z,70.31
2023-02-17T03:13:25.071Z,70.37
2023-02-17T03:15:58.663Z,70.46
2023-02-17T03:18:34.985Z,70.25
2023-02-17T03:21:13.702Z,70.30
2023-02-17T03:23:47.430Z,69.85
2023-02-17T03:26:20.293Z,69.64
2023-02-17T03:28:52.869Z,70.11
2023-02-17T03:31:26.002Z,70.40
2023-02-17T03:33:58.672Z,70.14
2023-02-17T03:36:31.199Z,69.90
2023-02-17T03:39:04.020Z,70.03
2023-02-17T03:41:36.504Z,70.57
2023-02-17T03:44:09.176Z,70.29
2023-02-17T03:46:43.011Z,70.55
2023-02-17T03:49:17.203Z,70.82
2023-02-17T03:51:50.789Z,71.16
2023-02-17T03:54:23.262Z,71.31
2023-02-17T03:56:59.135Z,71.73
2023-02-17T03:59:32.268Z,72.24
2023-02-17T04:02:05.369Z,72.57
2023-02-17T04:04:39.791Z,72.75
2023-02-17T04:07:14.601Z,72.85
2023-02-17T04:09:45.404Z,73.63
2023-02-17T04:12:17.760Z,73.16
2023-02-17T04:14:50.236Z,73.46
2023-02-17T04:17:22.673Z,73.52
2023-02-17T04:19:57.756Z,73.81
2023-02-17T04:22:30.186Z,73.54
2023-02-17T04:25:02.703Z,73.30
2023-02-17T04:27:35.138Z,73.64
2023-02-17T04:30:12.282Z,74.70
2023-02-17T04:32:52.681Z,74.31
2023-02-17T04:35:26.823Z,74.92
2023-02-17T04:37:59.589Z,75.15
2023-02-17T04:40:32.578Z,74.42
2023-02-17T04:43:05.442Z,74.56
2023-02-17T04:45:39.127Z,74.94
2023-02-17T04:48:11.601Z,75.08
2023-02-17T04:50:44.875Z,75.01
2023-02-17T04:53:17.405Z,75.34
2023-02-17T04:55:53.188Z,74.90
2023-02-17T04:58:25.962Z,74.81
2023-02-17T05:01:01.578Z,75.64
2023-02-17T05:03:34.012Z,75.24
2023-02-17T05:06:08.500Z,75.05
2023-02-17T05:08:43.662Z,74.99
2023-02-17T05:11:16.118Z,74.94
2023-02-17T05:13:48.570Z,75.07
2023-02-17T05:16:21.646Z,74.82
2023-02-17T05:18:54.061Z,74.90
2023-02-17T05:21:27.365Z,75.17
2023-02-17T05:24:00.317Z,74.81
2023-02-17T05:26:36.599Z,74.84
2023-02-17T05:29:09.865Z,75.11
2023-02-17T05:31:42.980Z,75.42
2023-02-17T05:34:15.710Z,75.16
2023-02-17T05:36:48.180Z,75.06
2023-02-17T05:39:21.037Z,75.32
2023-02-17T05:41:55.882Z,75.32
2023-02-17T05:44:29.814Z,75.70
2023-02-17T05:47:02.391Z,76.48
2023-02-17T05:49:35.310Z,77.30
2023-02-17T05:52:08.557Z,76.44
2023-02-17T05:54:41.034Z,76.47
2023-02-17T05:57:13.925Z,77.01
2023-02-17T05:59:46.542Z,77.54
2023-02-17T06:02:19.131Z,77.83
2023-02-17T06:04:52.061Z,77.93
2023-02-17T06:07:24.594Z,77.86
2023-02-17T06:09:58.031Z,78.00
2023-02-17T06:12:31.557Z,78.17
2023-02-17T06:15:04.257Z,78.24
2023-02-17T06:17:36.801Z,77.97
2023-02-17T06:20:11.686Z,78.58
2023-02-17T06:22:44.967Z,79.12
2023-02-17T06:25:17.492Z,78.88
2023-02-17T06:27:49.929Z,78.73
2023-02-17T06:30:23.323Z,78.80
2023-02-17T06:32:56.473Z,78.92
2023-02-17T06:35:33.622Z,79.26
2023-02-17T06:38:07.135Z,79.63
2023-02-17T06:40:42.889Z,79.44
2023-02-17T06:43:19.834Z,79.79
2023-02-17T06:45:53.476Z,80.38
2023-02-17T06:48:29.148Z,80.86
2023-02-17T06:51:02.622Z,81.05
2023-02-17T06:53:35.796Z,81.08
2023-02-17T06:56:09.051Z,80.93
2023-02-17T06:58:50.824Z,80.65
2023-02-17T07:01:26.202Z,81.35
2023-02-17T07:04:00.143Z,81.32
2023-02-17T07:06:32.692Z,82.00
2023-02-17T07:09:05.861Z,82.13
2023-02-17T07:11:38.307Z,82.50
2023-02-17T07:14:10.830Z,82.08
2023-02-17T07:16:43.984Z,82.09
2023-02-17T07:19:16.941Z,82.27
2023-02-17T07:21:49.915Z,82.25
2023-02-17T07:24:23.356Z,82.03
2023-02-17T07:26:56.375Z,82.01
2023-02-17T07:29:29.831Z,82.00
2023-02-17T07:32:03.487Z,82.52
2023-02-17T07:34:36.141Z,82.50
2023-02-17T07:37:08.913Z,82.88
2023-02-17T07:39:41.501Z,84.37
2023-02-17T07:42:14.313Z,84.61
2023-02-17T07:44:46.821Z,85.30
2023-02-17T07:47:19.523Z,84.86
2023-02-17T07:49:52.066Z,84.83
2023-02-17T07:52:24.485Z,84.13
2023-02-17T07:54:57.430Z,83.96
2023-02-17T07:57:30.254Z,83.72
2023-02-17T08:00:02.765Z,83.30
2023-02-17T08:02:46.111Z,84.64
2023-02-17T08:05:19.184Z,84.53
2023-02-17T08:08:12.682Z,84.74
2023-02-17T08:11:02.402Z,85.64
2023-02-17T08:13:35.014Z,85.85
2023-02-17T08:16:08.222Z,86.03
2023-02-17T08:18:41.027Z,85.86
2023-02-17T08:21:13.852Z,86.11
2023-02-17T08:23:46.366Z,86.43
2023-02-17T08:26:19.996Z,86.61
2023-02-17T08:28:52.625Z,86.80
2023-02-17T08:31:27.822Z,87.17
2023-02-17T08:34:01.445Z,87.17
2023-02-17T08:36:34.784Z,88.09
2023-02-17T08:39:11.311Z,87.39
2023-02-17T08:41:46.851Z,88.24
2023-02-17T08:44:22.783Z,88.52
2023-02-17T08:46:55.742Z,88.89
2023-02-17T08:49:30.182Z,89.07
2023-02-17T08:52:03.238Z,89.20
2023-02-17T08:54:36.513Z,89.49
2023-02-17T08:57:09.271Z,89.52
2023-02-17T08:59:42.878Z,90.26
2023-02-17T09:02:15.627Z,91.34
2023-02-17T09:04:48.373Z,92.53
2023-02-17T09:07:21.117Z,92.96
2023-02-17T09:09:53.661Z,93.44
2023-02-17T09:12:26.797Z,92.07
2023-02-17T09:14:59.501Z,92.55
2023-02-17T09:17:32.290Z,91.55
2023-02-17T09:20:16.232Z,91.63
2023-02-17T09:22:55.677Z,92.24
2023-02-17T09:25:28.534Z,92.29
2023-02-17T09:28:01.509Z,91.81
2023-02-17T09:30:34.807Z,90.98
2023-02-17T09:33:07.464Z,91.78
2023-02-17T09:35:46.914Z,92.97
2023-02-17T09:38:19.683Z,93.02
2023-02-17T09:40:52.716Z,93.33
2023-02-17T09:43:31.806Z,93.23
2023-02-17T09:46:11.519Z,93.56
2023-02-17T09:48:44.384Z,93.83
2023-02-17T09:51:24.508Z,94.85
2023-02-17T09:54:06.525Z,95.07
2023-02-17T09:56:42.680Z,95.44
2023-02-17T09:59:21.944Z,95.22
2023-02-17T10:01:55.618Z,94.83
2023-02-17T10:04:34.129Z,94.73
2023-02-17T10:07:13.058Z,95.05
2023-02-17T10:09:53.799Z,94.63
2023-02-17T10:12:29.626Z,94.24
2023-02-17T10:15:05.846Z,94.01
2023-02-17T10:17:42.359Z,94.24
2023-02-17T10:20:19.353Z,93.83
2023-02-17T10:22:57.217Z,94.08
2023-02-17T10:25:43.882Z,94.35
2023-02-17T10:28:35.784Z,94.61
2023-02-17T10:31:14.728Z,95.19
2023-02-17T10:33:55.301Z,95.59
2023-02-17T10:36:34.388Z,95.61
2023-02-17T10:39:14.754Z,95.53
2023-02-17T10:41:52.825Z,95.89
2023-02-17T10:44:27.117Z,96.19
2023-02-17T10:46:59.567Z,96.37
2023-02-17T10:49:35.822Z,95.86
2023-02-17T10:52:15.007Z,95.80
2023-02-17T10:54:52.061Z,96.56
2023-02-17T10:57:27.561Z,97.30
2023-02-17T11:00:00.088Z,97.50
2023-02-17T11:02:38.510Z,97.09
2023-02-17T11:05:21.855Z,96.64
2023-02-17T11:07:58.860Z,96.01
2023-02-17T11:10:33.827Z,95.77
2023-02-17T11:13:20.740Z,96.13
2023-02-17T11:15:53.409Z,96.69
2023-02-17T11:18:30.082Z,97.28
2023-02-17T11:21:10.353Z,96.82
2023-02-17T11:23:53.716Z,97.58
2023-02-17T11:26:28.694Z,97.83
2023-02-17T11:29:12.756Z,98.10
2023-02-17T11:31:55.178Z,98.06
2023-02-17T11:34:30.673Z,97.95
2023-02-17T11:37:16.322Z,97.90
2023-02-17T11:39:51.007Z,99.32
2023-02-17T11:42:26.578Z,99.80
2023-02-17T11:45:00.609Z,99.61
2023-02-17T11:47:42.130Z,98.97
2023-02-17T11:50:41.265Z,98.53
2023-02-17T11:53:29.152Z,98.71
2023-02-17T11:56:13.261Z,99.45
2023-02-17T11:59:06.395Z,99.85
2023-02-17T12:01:56.902Z,100.00
2023-02-17T12:04:31.946Z,100.00
2023-02-17T12:07:36.281Z,100.00
2023-02-17T12:10:18.776Z,100.00
2023-02-17T12:13:16.966Z,100.00
2023-02-17T12:16:03.664Z,99.99
2023-02-17T12:18:50.465Z,99.97
2023-02-17T12:21:36.050Z,100.00
2023-02-17T12:24:26.675Z,100.00
2023-02-17T12:27:11.241Z,100.00
2023-02-17T12:30:05.528Z,100.00
2023-02-17T12:32:52.781Z,100.00
2023-02-17T12:35:28.833Z,100.00
2023-02-17T12:38:05.441Z,100.00
2023-02-17T12:40:40.846Z,100.00
2023-02-17T12:43:25.643Z,100.00
2023-02-17T12:46:01.336Z,100.00
2023-02-17T12:48:37.893Z,100.00
2023-02-17T12:51:13.496Z,100.00
2023-02-17T12:53:51.420Z,100.00
2023-02-17T12:56:44.590Z,100.00
2023-02-17T12:59:21.311Z,100.00
2023-02-17T13:02:00.657Z,100.00
2023-02-17T13:04:36.168Z,100.00
2023-02-17T13:07:28.078Z,100.00
2023-02-17T13:10:01.421Z,100.00
2023-02-17T13:12:40.963Z,100.00
2023-02-17T13:15:28.849Z,100.00
2023-02-17T13:18:03.557Z,100.00
2023-02-17T13:20:45.855Z,100.00
2023-02-17T13:23:36.998Z,100.00
2023-02-17T13:26:28.401Z,100.00
2023-02-17T13:29:34.426Z,100.00
2023-02-17T13:32:09.966Z,100.00
2023-02-17T13:34:44.829Z,100.00
2023-02-17T13:37:38.526Z,100.00
2023-02-17T13:40:38.029Z,100.00
2023-02-17T13:43:18.040Z,100.00
2023-02-17T13:45:54.552Z,100.00
2023-02-17T13:48:30.535Z,100.00
2023-02-17T13:51:04.963Z,100.00
2023-02-17T13:53:39.112Z,100.00
2023-02-17T13:56:24.411Z,100.00
2023-02-17T13:59:07.957Z,100.00
2023-02-17T14:01:43.353Z,100.00
2023-02-17T14:04:26.372Z,100.00
2023-02-17T14:07:01.429Z,100.00
2023-02-17T14:09:35.625Z,100.00
2023-02-17T14:12:20.339Z,100.00
2023-02-17T14:14:52.916Z,100.00
2023-02-17T14:17:33.659Z,100.00
2023-02-17T14:20:07.832Z,100.00
2023-02-17T14:22:40.432Z,100.00
2023-02-17T14:25:26.968Z,100.00
2023-02-17T14:28:00.111Z,100.00
2023-02-17T14:30:34.716Z,100.00
2023-02-17T14:33:09.805Z,100.00
2023-02-17T14:35:53.361Z,100.00
2023-02-17T14:38:28.527Z,100.00
2023-02-17T14:41:02.251Z,100.00
2023-02-17T14:43:35.511Z,100.00
2023-02-17T14:46:08.451Z,100.00
2023-02-17T14:48:41.353Z,100.00
2023-02-17T14:51:16.886Z,100.00
2023-02-17T14:53:50.114Z,100.00
2023-02-17T14:56:27.528Z,100.00
2023-02-17T14:59:00.175Z,100.00
2023-02-17T15:01:32.719Z,100.00
2023-02-17T15:04:06.358Z,100.00
2023-02-17T15:06:42.673Z,100.00
2023-02-17T15:09:17.970Z,100.00
2023-02-17T15:11:52.048Z,100.00
2023-02-17T15:14:24.981Z,100.00
2023-02-17T15:16:57.434Z,100.00
2023-02-17T15:19:29.963Z,100.00
2023-02-17T15:22:04.108Z,100.00
2023-02-17T15:24:38.232Z,100.00
2023-02-17T15:27:17.506Z,100.00
2023-02-17T15:29:49.890Z,100.00
2023-02-17T15:32:24.172Z,100.00
2023-02-17T15:34:57.227Z,100.00
2023-02-17T15:37:29.792Z,100.00
2023-02-17T15:40:02.552Z,100.00
2023-02-17T15:42:35.570Z,100.00
2023-02-17T15:45:11.689Z,100.00
2023-02-17T15:47:45.526Z,100.00
2023-02-17T15:50:22.702Z,100.00
2023-02-17T15:52:55.492Z,100.00
2023-02-17T15:55:29.490Z,100.00
2023-02-17T15:58:06.271Z,100.00
2023-02-17T16:00:40.801Z,100.00
2023-02-17T16:03:13.674Z,100.00
2023-02-17T16:05:46.328Z,100.00
2023-02-17T16:08:19.681Z,100.00
2023-02-17T16:10:52.441Z,100.00
2023-02-17T16:13:28.032Z,99.72
2023-02-17T16:16:01.631Z,99.11
2023-02-17T16:18:34.350Z,98.76
2023-02-17T16:21:07.304Z,98.31
2023-02-17T16:23:40.332Z,98.75
2023-02-17T16:26:21.425Z,98.46
2023-02-17T16:28:54.726Z,98.26
2023-02-17T16:31:27.242Z,98.02
2023-02-17T16:34:00.534Z,98.42
2023-02-17T16:36:35.860Z,99.26
2023-02-17T16:39:18.080Z,99.15
2023-02-17T16:41:50.824Z,98.41
2023-02-17T16:44:25.870Z,98.50
2023-02-17T16:47:00.410Z,98.44
2023-02-17T16:49:36.086Z,98.16
2023-02-17T16:52:18.336Z,97.85
2023-02-17T16:54:50.981Z,97.41
2023-02-17T16:57:23.788Z,97.65
2023-02-17T16:59:56.333Z,97.62
2023-02-17T17:02:31.668Z,97.55
2023-02-17T17:05:04.595Z,98.25
2023-02-17T17:07:37.375Z,98.57
2023-02-17T17:10:16.609Z,98.23
2023-02-17T17:12:49.968Z,97.55
2023-02-17T17:15:23.454Z,97.40
2023-02-17T17:17:59.613Z,97.20
2023-02-17T17:20:35.090Z,96.60
2023-02-17T17:23:10.100Z,96.03
2023-02-17T17:25:46.765Z,95.89
2023-02-17T17:28:20.954Z,95.71
2023-02-17T17:30:53.810Z,95.81
2023-02-17T17:33:26.506Z,95.53
2023-02-17T17:35:59.108Z,95.26
2023-02-17T17:38:31.679Z,94.99
2023-02-17T17:41:05.282Z,95.11
2023-02-17T17:43:37.755Z,94.81
2023-02-17T17:46:16.085Z,95.09
2023-02-17T17:48:50.091Z,95.46
2023-02-17T17:51:24.460Z,95.59
2023-02-17T17:53:57.416Z,96.21
2023-02-17T17:56:32.138Z,96.29
2023-02-17T17:59:04.590Z,95.72
2023-02-17T18:01:37.210Z,95.21
2023-02-17T18:04:10.804Z,95.20
2023-02-17T18:06:48.673Z,94.48
2023-02-17T18:09:32.427Z,93.77
2023-02-17T18:12:09.156Z,94.09
2023-02-17T18:14:44.407Z,94.14
2023-02-17T18:17:19.084Z,93.61
2023-02-17T18:19:55.076Z,92.08
2023-02-17T18:22:28.324Z,91.27
2023-02-17T18:25:01.187Z,91.28
2023-02-17T18:27:40.376Z,90.63
2023-02-17T18:30:16.143Z,89.85
2023-02-17T18:32:49.000Z,89.59
2023-02-17T18:35:22.022Z,89.25
2023-02-17T18:37:54.606Z,89.82
2023-02-17T18:40:29.186Z,89.82
2023-02-17T18:43:01.779Z,90.45
2023-02-17T18:45:34.891Z,90.70
2023-02-17T18:48:08.275Z,90.03
2023-02-17T18:50:40.849Z,89.51
2023-02-17T18:53:13.367Z,88.33
2023-02-17T18:55:47.641Z,87.70
2023-02-17T18:58:21.117Z,86.96
2023-02-17T19:00:53.898Z,86.08
2023-02-17T19:03:26.777Z,85.55
2023-02-17T19:05:59.663Z,84.93
2023-02-17T19:08:32.415Z,84.07
2023-02-17T19:11:05.032Z,83.61
2023-02-17T19:13:38.214Z,83.88
2023-02-17T19:16:13.536Z,83.84
2023-02-17T19:18:48.587Z,83.16
2023-02-17T19:21:20.056Z,82.86
2023-02-17T19:23:54.236Z,82.62
2023-02-17T19:26:26.748Z,83.87
2023-02-17T19:28:59.457Z,84.41
2023-02-17T19:31:32.362Z,83.82
2023-02-17T19:34:05.205Z,82.67
2023-02-17T19:36:38.106Z,81.69
2023-02-17T19:39:11.435Z,81.34
2023-02-17T19:41:44.259Z,82.10
2023-02-17T19:44:18.177Z,83.02
2023-02-17T19:46:50.833Z,83.86
2023-02-17T19:49:25.049Z,83.74
2023-02-17T19:51:57.447Z,83.15
2023-02-17T19:54:30.166Z,81.12
2023-02-17T19:57:02.610Z,80.78
2023-02-17T19:59:36.370Z,79.33
2023-02-17T20:02:11.767Z,78.53
2023-02-17T20:04:44.845Z,78.73
2023-02-17T20:07:17.684Z,77.97
2023-02-17T20:09:50.214Z,77.21
2023-02-17T20:12:22.693Z,73.80
2023-02-17T20:14:57.441Z,71.94
2023-02-17T20:17:29.988Z,69.92
2023-02-17T20:20:03.481Z,69.61
2023-02-17T20:22:36.203Z,69.70
2023-02-17T20:25:09.664Z,69.06
2023-02-17T20:27:42.340Z,67.57
2023-02-17T20:30:17.236Z,67.13
2023-02-17T20:32:50.954Z,65.90
2023-02-17T20:35:23.594Z,65.19
2023-02-17T20:37:56.201Z,63.56
2023-02-17T20:40:29.121Z,63.42
2023-02-17T20:43:01.873Z,63.12
2023-02-17T20:45:34.748Z,63.45
2023-02-17T20:48:07.705Z,63.66
2023-02-17T20:50:41.087Z,64.02
2023-02-17T20:53:14.272Z,64.37
2023-02-17T20:55:47.419Z,64.37
2023-02-17T20:58:20.486Z,64.10
2023-02-17T21:00:53.364Z,63.63
2023-02-17T21:03:26.087Z,63.89
2023-02-17T21:05:58.909Z,64.13
2023-02-17T21:08:32.080Z,63.09
2023-02-17T21:11:05.111Z,61.57
2023-02-17T21:13:37.619Z,60.28
2023-02-17T21:16:14.844Z,56.17
2023-02-17T21:18:50.604Z,54.19
2023-02-17T21:21:24.126Z,52.59
2023-02-17T21:23:57.268Z,52.31
2023-02-17T21:26:30.277Z,52.43
2023-02-17T21:29:02.846Z,52.26
2023-02-17T21:31:36.293Z,52.59
2023-02-17T21:34:09.155Z,53.16
2023-02-17T21:36:41.886Z,53.01
2023-02-17T21:39:14.445Z,54.01
2023-02-17T21:41:46.991Z,54.92
2023-02-17T21:44:37.593Z,55.84
2023-02-17T21:47:10.448Z,56.72
2023-02-17T21:49:44.041Z,56.78
2023-02-17T21:52:17.414Z,56.49
2023-02-17T21:54:50.260Z,56.71
2023-02-17T21:57:22.696Z,56.36
2023-02-17T21:59:55.385Z,55.64
2023-02-17T22:02:27.964Z,55.31
2023-02-17T22:05:00.478Z,55.18
2023-02-17T22:07:33.071Z,54.88
2023-02-17T22:10:07.316Z,55.23
2023-02-17T22:12:40.308Z,55.91
2023-02-17T22:15:16.121Z,56.08
2023-02-17T22:17:48.656Z,56.37
2023-02-17T22:20:21.614Z,56.24
2023-02-17T22:22:54.864Z,56.59
2023-02-17T22:25:28.322Z,56.77
2023-02-17T22:28:00.972Z,56.76
2023-02-17T22:30:33.611Z,56.91
2023-02-17T22:33:06.402Z,57.12
2023-02-17T22:35:39.816Z,57.38
2023-02-17T22:38:12.921Z,57.40
2023-02-17T22:40:47.941Z,57.93
2023-02-17T22:43:20.428Z,58.26
2023-02-17T22:46:01.049Z,58.16
2023-02-17T22:48:35.141Z,58.42
2023-02-17T22:51:10.593Z,58.21
2023-02-17T22:53:44.001Z,58.51
2023-02-17T22:56:17.840Z,58.96
2023-02-17T22:58:55.438Z,59.41
2023-02-17T23:01:29.169Z,59.63
2023-02-17T23:04:02.874Z,59.87
2023-02-17T23:06:37.683Z,60.65
2023-02-17T23:09:12.664Z,60.37
2023-02-17T23:11:54.504Z,59.99
2023-02-17T23:14:29.431Z,58.87
2023-02-17T23:17:05.335Z,58.46
2023-02-17T23:19:38.310Z,58.34
2023-02-17T23:22:15.919Z,58.36
2023-02-17T23:24:49.751Z,58.77
2023-02-17T23:27:22.129Z,59.37
2023-02-17T23:29:55.108Z,59.56
2023-02-17T23:32:27.568Z,60.17
2023-02-17T23:35:01.201Z,60.45
2023-02-17T23:37:33.616Z,60.73
2023-02-17T23:40:08.913Z,61.02
2023-02-17T23:42:41.408Z,60.73
2023-02-17T23:45:15.055Z,60.48
2023-02-17T23:47:47.875Z,59.88
2023-02-17T23:50:20.566Z,59.93
2023-02-17T23:52:53.673Z,60.33
2023-02-17T23:55:26.521Z,60.62
2023-02-17T23:58:02.436Z,60.28
